KZD weather

Krakor Airport
Krakor, Pousaat, Cambodia

Public forecast

Using degrees Celsius for public forecast. Weather courtesy of forecast.io.

METAR (pilot weather report)

Closest report is Siem Reap International Airport, 55.9 nm (103.6 km) NNW. Retrieved 2019/04/20 13:30 UTC (21 minutes ago):

VDSR 201330Z 18005KT 9000 SCT017 33/23 Q1003

TAF (pilot weather forecast)

Closest forecast is Siem Reap International Airport, 55.9 nm (103.6 km) NNW. Retrieved 2019/04/20 12:00 UTC (2 hours ago):

TAF VDSR 201100Z 2012/2106 21007KT 9999 SCT017